Time,TemperatureF,DewpointF,PressureIn,WindDirection,WindDirectionDegrees,WindSpeedMPH,WindSpeedGustMPH,Humidity,HourlyPrecipIn,Conditions,Clouds,dailyrainin,SolarRadiationWatts/m^2,SoftwareType,DateUTC
2014-08-29 00:01:00,61.0,47.0,29.93,SE,126,1.1,0.0,60,0.00,CLR,SCT,0.00,0.0,WeatherDisplay:10.37,2014-08-29 07:01:00,
2014-08-29 00:06:00,61.0,46.6,29.94,SE,126,0.0,0.0,59,0.00,CLR,SCT,0.00,0.0,WeatherDisplay:10.37,2014-08-29 07:06:00,
2014-08-29 00:11:00,60.9,46.5,29.94,SE,126,0.0,0.0,59,0.00,CLR,SCT,0.00,0.0,WeatherDisplay:10.37,2014-08-29 07:11:00,
2014-08-29 00:16:00,60.8,46.8,29.94,SE,126,1.1,1.1,60,0.00,CLR,SCT,0.00,0.0,WeatherDisplay:10.37,2014-08-29 07:16:00,
2014-08-29 00:21:00,60.7,46.7,29.94,SE,126,1.1,1.1,60,0.00,CLR,SCT,0.00,0.0,WeatherDisplay:10.37,2014-08-29 07:21:00,
2014-08-29 00:26:00,60.5,46.5,29.94,SE,126,1.1,1.1,60,0.00,CLR,SCT,0.00,0.0,WeatherDisplay:10.37,2014-08-29 07:26:00,
2014-08-29 00:31:00,60.4,46.4,29.94,SE,126,0.0,0.0,60,0.00,CLR,SCT,0.00,0.0,WeatherDisplay:10.37,2014-08-29 07:31:00,
2014-08-29 00:36:00,60.4,46.9,29.94,SE,126,1.0,0.0,61,0.00,CLR,SCT,0.00,0.0,WeatherDisplay:10.37,2014-08-29 07:36:00,
2014-08-29 00:41:00,60.3,46.8,29.94,SE,126,0.0,0.0,61,0.00,CLR,SCT,0.00,0.0,WeatherDisplay:10.37,2014-08-29 07:41:00,
2014-08-29 00:46:00,60.2,46.7,29.94,SE,126,0.0,0.0,61,0.00,CLR,SCT,0.00,0.0,WeatherDisplay:10.37,2014-08-29 07:46:00,
2014-08-29 00:51:00,60.1,46.6,29.94,SE,126,0.0,0.0,61,0.00,CLR,SCT,0.00,0.0,WeatherDisplay:10.37,2014-08-29 07:51:00,
2014-08-29 00:56:00,60.0,46.5,29.94,SE,126,2.0,2.0,61,0.00,CLR,SCT,0.00,0.0,WeatherDisplay:10.37,2014-08-29 07:56:00,
2014-08-29 01:01:00,59.9,46.4,29.94,SE,126,1.0,1.0,61,0.00,CLR,SCT,0.00,0.0,WeatherDisplay:10.37,2014-08-29 08:01:00,
2014-08-29 01:06:00,59.9,46.8,29.94,SE,126,0.0,0.0,62,0.00,CLR,SCT,0.00,0.0,WeatherDisplay:10.37,2014-08-29 08:06:00,
2014-08-29 01:11:00,59.8,46.7,29.94,SE,126,1.1,0.0,62,0.00,CLR,SCT,0.00,0.0,WeatherDisplay:10.37,2014-08-29 08:11:00,
2014-08-29 01:16:00,59.7,46.7,29.94,SE,126,0.0,0.0,62,0.00,CLR,SCT,0.00,0.0,WeatherDisplay:10.37,2014-08-29 08:16:00,
2014-08-29 01:21:00,59.6,46.6,29.94,SE,126,1.1,0.0,62,0.00,CLR,SCT,0.00,0.0,WeatherDisplay:10.37,2014-08-29 08:21:00,
2014-08-29 01:26:00,59.5,46.5,29.94,SE,126,1.1,0.0,62,0.00,CLR,SCT,0.00,0.0,WeatherDisplay:10.37,2014-08-29 08:26:00,
2014-08-29 01:31:00,59.4,46.4,29.93,SE,126,0.0,0.0,62,0.00,CLR,SCT,0.00,0.0,WeatherDisplay:10.37,2014-08-29 08:31:00,
2014-08-29 01:36:00,59.3,46.3,29.93,SE,126,1.1,1.1,62,0.00,CLR,SCT,0.00,0.0,WeatherDisplay:10.37,2014-08-29 08:36:00,
2014-08-29 01:41:00,59.2,46.2,29.93,SE,126,0.0,0.0,62,0.00,CLR,SCT,0.00,0.0,WeatherDisplay:10.37,2014-08-29 08:41:00,
2014-08-29 01:46:00,59.1,46.5,29.93,SE,126,0.0,0.0,63,0.00,CLR,SCT,0.00,0.0,WeatherDisplay:10.37,2014-08-29 08:46:00,
2014-08-29 01:51:00,59.0,46.4,29.93,SE,126,1.1,0.0,63,0.00,CLR,SCT,0.00,0.0,WeatherDisplay:10.37,2014-08-29 08:51:00,
2014-08-29 01:56:00,58.9,46.3,29.93,SE,126,0.0,0.0,63,0.00,CLR,SCT,0.00,0.0,WeatherDisplay:10.37,2014-08-29 08:56:00,
2014-08-29 02:01:00,58.8,46.2,29.92,SE,126,0.0,0.0,63,0.00,CLR,SCT,0.00,0.0,WeatherDisplay:10.37,2014-08-29 09:01:00,
2014-08-29 02:06:00,58.7,46.1,29.92,SE,126,1.1,1.1,63,0.00,CLR,SCT,0.00,0.0,WeatherDisplay:10.37,2014-08-29 09:06:00,
2014-08-29 02:11:00,58.6,46.0,29.92,SE,126,1.1,1.1,63,0.00,CLR,SCT,0.00,0.0,WeatherDisplay:10.37,2014-08-29 09:11:00,
2014-08-29 02:16:00,58.5,46.4,29.92,SE,126,0.0,0.0,64,0.00,CLR,SCT,0.00,0.0,WeatherDisplay:10.37,2014-08-29 09:16:00,
2014-08-29 02:21:00,58.4,46.3,29.92,SE,126,0.0,0.0,64,0.00,CLR,SCT,0.00,0.0,WeatherDisplay:10.37,2014-08-29 09:21:00,
2014-08-29 02:26:00,58.4,46.3,29.92,SE,126,1.1,1.1,64,0.00,CLR,SCT,0.00,0.0,WeatherDisplay:10.37,2014-08-29 09:26:00,
2014-08-29 02:31:00,58.3,46.2,29.92,SE,126,1.1,1.1,64,0.00,CLR,SCT,0.00,0.0,WeatherDisplay:10.37,2014-08-29 09:31:00,
2014-08-29 02:36:00,58.2,46.1,29.93,SE,126,0.0,0.0,64,0.00,CLR,SCT,0.00,0.0,WeatherDisplay:10.37,2014-08-29 09:36:00,
2014-08-29 02:41:00,58.1,46.0,29.92,SE,126,0.0,0.1,64,0.00,CLR,SCT,0.00,0.0,WeatherDisplay:10.37,2014-08-29 09:41:00,
2014-08-29 02:46:00,58.1,46.0,29.92,SE,126,0.0,0.1,64,0.00,CLR,SCT,0.00,0.0,WeatherDisplay:10.37,2014-08-29 09:46:00,
2014-08-29 02:51:00,58.0,45.9,29.92,SE,126,1.1,1.1,64,0.00,CLR,SCT,0.00,0.0,WeatherDisplay:10.37,2014-08-29 09:51:00,
2014-08-29 02:56:00,58.0,45.9,29.92,SE,126,1.1,1.1,64,0.00,CLR,SCT,0.00,0.0,WeatherDisplay:10.37,2014-08-29 09:56:00,
2014-08-29 03:01:00,57.8,45.7,29.93,SE,126,0.0,0.0,64,0.00,CLR,SCT,0.00,0.0,WeatherDisplay:10.37,2014-08-29 10:01:00,
2014-08-29 03:06:00,57.8,45.7,29.92,SE,126,1.1,1.1,64,0.00,CLR,SCT,0.00,0.0,WeatherDisplay:10.37,2014-08-29 10:06:00,
2014-08-29 03:11:00,57.8,45.7,29.92,SE,126,1.0,1.0,64,0.00,CLR,SCT,0.00,0.0,WeatherDisplay:10.37,2014-08-29 10:11:00,
2014-08-29 03:16:00,57.8,45.7,29.93,SE,126,0.0,0.0,64,0.00,CLR,SCT,0.00,0.0,WeatherDisplay:10.37,2014-08-29 10:16:00,
2014-08-29 03:21:00,57.8,45.7,29.93,SE,126,0.0,0.0,64,0.00,CLR,SCT,0.00,0.0,WeatherDisplay:10.37,2014-08-29 10:21:00,
2014-08-29 03:26:00,57.8,45.7,29.92,SE,126,1.1,1.1,64,0.00,CLR,SCT,0.00,0.0,WeatherDisplay:10.37,2014-08-29 10:26:00,
2014-08-29 03:31:00,57.7,45.6,29.92,SE,126,0.0,0.0,64,0.00,CLR,SCT,0.00,0.0,WeatherDisplay:10.37,2014-08-29 10:31:00,
2014-08-29 03:36:00,57.7,45.6,29.92,SE,126,1.1,1.1,64,0.00,CLR,SCT,0.00,0.0,WeatherDisplay:10.37,2014-08-29 10:36:00,
2014-08-29 03:41:00,57.8,45.3,29.92,SE,126,1.1,1.1,63,0.00,CLR,SCT,0.00,0.0,WeatherDisplay:10.37,2014-08-29 10:41:00,
2014-08-29 03:46:00,57.8,45.3,29.92,SE,126,1.1,1.1,63,0.00,CLR,SCT,0.00,0.0,WeatherDisplay:10.37,2014-08-29 10:46:00,
2014-08-29 03:51:00,57.8,45.3,29.92,SE,126,0.0,0.0,63,0.00,CLR,SCT,0.00,0.0,WeatherDisplay:10.37,2014-08-29 10:51:00,
2014-08-29 03:56:00,57.8,45.3,29.92,SE,126,1.1,1.1,63,0.00,CLR,SCT,0.00,0.0,WeatherDisplay:10.37,2014-08-29 10:56:00,
2014-08-29 04:01:00,57.8,45.3,29.92,SE,126,1.1,0.0,63,0.00,CLR,SCT,0.00,0.0,WeatherDisplay:10.37,2014-08-29 11:01:00,
2014-08-29 04:06:00,57.8,45.3,29.92,SE,126,0.0,0.0,63,0.00,CLR,SCT,0.00,0.0,WeatherDisplay:10.37,2014-08-29 11:06:00,
2014-08-29 04:11:00,57.8,45.3,29.92,SE,126,0.0,0.0,63,0.00,CLR,SCT,0.00,0.0,WeatherDisplay:10.37,2014-08-29 11:11:00,
2014-08-29 04:16:00,57.8,45.3,29.92,SE,126,0.0,0.1,63,0.00,CLR,SCT,0.00,0.0,WeatherDisplay:10.37,2014-08-29 11:16:00,
2014-08-29 04:21:00,57.7,44.8,29.92,SE,126,1.1,1.1,62,0.00,CLR,SCT,0.00,0.0,WeatherDisplay:10.37,2014-08-29 11:21:00,
2014-08-29 04:26:00,57.8,44.9,29.92,SE,126,1.0,1.0,62,0.00,CLR,SCT,0.00,0.0,WeatherDisplay:10.37,2014-08-29 11:26:00,
2014-08-29 04:31:00,57.8,44.9,29.92,SE,126,1.1,1.1,62,0.00,CLR,SCT,0.00,0.0,WeatherDisplay:10.37,2014-08-29 11:31:00,
2014-08-29 04:36:00,57.9,45.0,29.92,SE,126,0.0,0.3,62,0.00,CLR,SCT,0.00,0.0,WeatherDisplay:10.37,2014-08-29 11:36:00,
2014-08-29 04:41:00,58.0,44.6,29.92,NNE,16,1.1,1.1,61,0.00,CLR,SCT,0.00,0.0,WeatherDisplay:10.37,2014-08-29 11:41:00,
2014-08-29 04:46:00,58.1,44.7,29.91,NNE,16,0.0,0.2,61,0.00,CLR,SCT,0.00,0.0,WeatherDisplay:10.37,2014-08-29 11:46:00,
2014-08-29 04:51:00,58.1,44.7,29.91,NNE,16,1.1,1.1,61,0.00,CLR,SCT,0.00,0.0,WeatherDisplay:10.37,2014-08-29 11:51:00,
2014-08-29 04:56:00,58.2,44.8,29.91,NNE,16,2.3,2.3,61,0.00,CLR,SCT,0.00,0.0,WeatherDisplay:10.37,2014-08-29 11:56:00,
2014-08-29 05:01:00,58.4,44.6,29.91,North,355,2.3,2.3,60,0.00,CLR,SCT,0.00,0.0,WeatherDisplay:10.37,2014-08-29 12:01:00,
2014-08-29 05:06:00,58.5,44.7,29.91,North,355,1.1,1.1,60,0.00,CLR,SCT,0.00,0.0,WeatherDisplay:10.37,2014-08-29 12:06:00,
2014-08-29 05:11:00,58.5,44.7,29.91,North,355,1.1,0.0,60,0.00,CLR,SCT,0.00,0.0,WeatherDisplay:10.37,2014-08-29 12:11:00,
2014-08-29 05:16:00,58.5,44.7,29.91,North,355,0.0,0.0,60,0.00,CLR,SCT,0.00,0.0,WeatherDisplay:10.37,2014-08-29 12:16:00,
2014-08-29 05:21:00,58.7,44.4,29.90,NNW,339,2.3,2.3,59,0.00,CLR,SCT,0.00,0.0,WeatherDisplay:10.37,2014-08-29 12:21:00,
2014-08-29 05:26:00,58.7,44.4,29.91,NNW,339,1.1,0.0,59,0.00,CLR,SCT,0.00,0.0,WeatherDisplay:10.37,2014-08-29 12:26:00,
2014-08-29 05:31:00,58.8,44.5,29.91,NNW,339,1.0,1.0,59,0.00,CLR,SCT,0.00,0.0,WeatherDisplay:10.37,2014-08-29 12:31:00,
2014-08-29 05:36:00,58.8,44.5,29.91,NNW,339,1.1,1.1,59,0.00,CLR,SCT,0.00,0.0,WeatherDisplay:10.37,2014-08-29 12:36:00,
2014-08-29 05:41:00,58.8,44.5,29.91,NNW,339,2.3,2.3,59,0.00,CLR,SCT,0.00,0.0,WeatherDisplay:10.37,2014-08-29 12:41:00,
2014-08-29 05:46:00,58.9,44.6,29.91,NNW,330,3.5,3.5,59,0.00,CLR,SCT,0.00,0.0,WeatherDisplay:10.37,2014-08-29 12:46:00,
2014-08-29 05:51:00,59.0,44.2,29.91,NNW,330,3.5,3.5,58,0.00,CLR,SCT,0.00,0.0,WeatherDisplay:10.37,2014-08-29 12:51:00,
2014-08-29 05:56:00,59.0,43.8,29.91,NNW,330,2.3,2.3,57,0.00,CLR,SCT,0.00,0.0,WeatherDisplay:10.37,2014-08-29 12:56:00,
2014-08-29 06:01:00,59.1,43.9,29.91,NNW,332,3.5,3.5,57,0.00,CLR,SCT,0.00,0.0,WeatherDisplay:10.37,2014-08-29 13:01:00,
2014-08-29 06:06:00,59.0,44.2,29.91,NNW,332,1.1,1.1,58,0.00,CLR,SCT,0.00,0.0,WeatherDisplay:10.37,2014-08-29 13:06:00,
2014-08-29 06:11:00,58.9,44.1,29.91,NNW,332,1.1,1.1,58,0.00,CLR,SCT,0.00,0.0,WeatherDisplay:10.37,2014-08-29 13:11:00,
2014-08-29 06:17:00,58.8,44.0,29.91,NNW,332,1.1,0.0,58,0.00,CLR,SCT,0.00,0.0,WeatherDisplay:10.37,2014-08-29 13:17:00,
2014-08-29 06:22:00,58.7,44.0,29.91,NNW,332,2.3,2.3,58,0.00,CLR,SCT,0.00,0.0,WeatherDisplay:10.37,2014-08-29 13:22:00,
2014-08-29 06:27:00,58.8,43.6,29.91,NNW,330,3.5,3.5,57,0.00,CLR,SCT,0.00,0.0,WeatherDisplay:10.37,2014-08-29 13:27:00,
2014-08-29 06:32:00,59.0,43.8,29.91,NNW,330,2.3,2.3,57,0.00,CLR,SCT,0.00,0.0,WeatherDisplay:10.37,2014-08-29 13:32:00,
2014-08-29 06:37:00,59.1,43.9,29.91,NNW,330,1.1,1.1,57,0.00,CLR,SCT,0.00,0.0,WeatherDisplay:10.37,2014-08-29 13:37:00,
2014-08-29 06:42:00,59.1,43.9,29.91,NNW,330,2.3,2.3,57,0.00,CLR,SCT,0.00,0.0,WeatherDisplay:10.37,2014-08-29 13:42:00,
2014-08-29 06:47:00,59.1,43.9,29.91,NNW,332,2.3,2.3,57,0.00,CLR,SCT,0.00,0.0,WeatherDisplay:10.37,2014-08-29 13:47:00,
2014-08-29 06:52:00,59.1,43.4,29.91,NNW,329,3.5,3.5,56,0.00,CLR,SCT,0.00,0.0,WeatherDisplay:10.37,2014-08-29 13:52:00,
2014-08-29 06:57:00,59.3,43.6,29.92,NNW,329,3.5,3.5,56,0.00,CLR,SCT,0.00,0.0,WeatherDisplay:10.37,2014-08-29 13:57:00,
2014-08-29 07:02:00,59.4,43.7,29.92,NNW,329,1.1,0.0,56,0.00,CLR,SCT,0.00,0.0,WeatherDisplay:10.37,2014-08-29 14:02:00,
2014-08-29 07:07:00,59.5,44.2,29.92,NNW,329,1.0,1.0,57,0.00,CLR,SCT,0.00,0.0,WeatherDisplay:10.37,2014-08-29 14:07:00,
2014-08-29 07:12:00,59.5,43.8,29.92,NNW,329,2.3,2.3,56,0.00,CLR,SCT,0.00,0.0,WeatherDisplay:10.37,2014-08-29 14:12:00,
2014-08-29 07:17:00,59.6,43.9,29.92,NNW,329,2.3,2.3,56,0.00,CLR,SCT,0.00,0.0,WeatherDisplay:10.37,2014-08-29 14:17:00,
2014-08-29 07:22:00,59.8,44.1,29.92,NNW,329,1.1,1.1,56,0.00,CLR,SCT,0.00,0.0,WeatherDisplay:10.37,2014-08-29 14:22:00,
2014-08-29 07:27:00,59.8,44.1,29.92,NNW,329,0.0,0.0,56,0.00,CLR,SCT,0.00,0.0,WeatherDisplay:10.37,2014-08-29 14:27:00,
2014-08-29 07:32:00,59.9,44.6,29.93,NNW,329,0.0,0.0,57,0.00,CLR,SCT,0.00,0.0,WeatherDisplay:10.37,2014-08-29 14:32:00,
2014-08-29 07:37:00,60.0,44.7,29.92,NNW,331,2.3,2.3,57,0.00,CLR,SCT,0.00,0.0,WeatherDisplay:10.37,2014-08-29 14:37:00,
2014-08-29 07:42:00,60.2,44.9,29.92,NNW,331,0.0,0.3,57,0.00,CLR,SCT,0.00,0.0,WeatherDisplay:10.37,2014-08-29 14:42:00,
2014-08-29 07:47:00,60.5,45.2,29.92,NNW,331,2.3,2.3,57,0.00,CLR,SCT,0.00,0.0,WeatherDisplay:10.37,2014-08-29 14:47:00,
2014-08-29 07:52:00,60.8,45.5,29.92,NNW,331,1.1,1.1,57,0.00,CLR,SCT,0.00,0.0,WeatherDisplay:10.37,2014-08-29 14:52:00,
2014-08-29 07:57:00,61.2,45.4,29.92,NNW,331,1.1,1.1,56,0.00,CLR,SCT,0.00,0.0,WeatherDisplay:10.37,2014-08-29 14:57:00,
2014-08-29 08:02:00,61.5,45.7,29.92,NNW,330,3.5,3.5,56,0.00,CLR,SCT,0.00,0.0,WeatherDisplay:10.37,2014-08-29 15:02:00,
2014-08-29 08:07:00,62.1,45.7,29.92,NNW,330,3.5,3.5,55,0.00,CLR,SCT,0.00,0.0,WeatherDisplay:10.37,2014-08-29 15:07:00,
2014-08-29 08:12:00,62.6,46.2,29.92,NNW,330,1.1,1.1,55,0.00,CLR,SCT,0.00,0.0,WeatherDisplay:10.37,2014-08-29 15:12:00,
2014-08-29 08:17:00,62.8,46.9,29.92,NNW,330,0.0,0.0,56,0.00,CLR,SCT,0.00,0.0,WeatherDisplay:10.37,2014-08-29 15:17:00,
2014-08-29 08:22:00,63.1,48.1,29.92,NNW,330,1.1,0.0,58,0.00,CLR,SCT,0.00,0.0,WeatherDisplay:10.37,2014-08-29 15:22:00,
2014-08-29 08:27:00,63.4,47.9,29.92,NNW,330,2.3,2.3,57,0.00,CLR,SCT,0.00,0.0,WeatherDisplay:10.37,2014-08-29 15:27:00,
2014-08-29 08:32:00,63.6,47.6,29.92,NNW,330,1.1,1.1,56,0.00,CLR,SCT,0.00,0.0,WeatherDisplay:10.37,2014-08-29 15:32:00,
2014-08-29 08:37:00,63.8,47.8,29.92,NNW,330,0.0,0.1,56,0.00,CLR,SCT,0.00,0.0,WeatherDisplay:10.37,2014-08-29 15:37:00,
2014-08-29 08:42:00,64.0,47.5,29.92,NNW,330,0.0,0.0,55,0.00,CLR,SCT,0.00,0.0,WeatherDisplay:10.37,2014-08-29 15:42:00,
2014-08-29 08:47:00,64.3,47.3,29.92,NNW,330,1.1,1.1,54,0.00,CLR,SCT,0.00,0.0,WeatherDisplay:10.37,2014-08-29 15:47:00,
2014-08-29 08:52:00,64.5,47.0,29.92,NNW,330,1.1,0.0,53,0.00,CLR,SCT,0.00,0.0,WeatherDisplay:10.37,2014-08-29 15:52:00,
2014-08-29 08:57:00,64.8,47.8,29.92,NNW,330,0.0,0.0,54,0.00,CLR,SCT,0.00,0.0,WeatherDisplay:10.37,2014-08-29 15:57:00,
2014-08-29 09:02:00,65.2,48.1,29.91,NNW,330,1.1,1.1,54,0.00,CLR,SCT,0.00,0.0,WeatherDisplay:10.37,2014-08-29 16:02:00,
2014-08-29 09:07:00,65.7,48.6,29.91,NNW,330,1.1,0.0,54,0.00,CLR,SCT,0.00,0.0,WeatherDisplay:10.37,2014-08-29 16:07:00,
2014-08-29 09:13:00,66.1,49.5,29.91,NNW,330,2.3,2.3,55,0.00,CLR,SCT,0.00,0.0,WeatherDisplay:10.37,2014-08-29 16:13:00,
2014-08-29 09:18:00,66.6,49.9,29.91,NNW,330,1.1,1.1,55,0.00,CLR,SCT,0.00,0.0,WeatherDisplay:10.37,2014-08-29 16:18:00,
2014-08-29 09:23:00,66.8,49.1,29.91,NNW,330,1.1,0.0,53,0.00,CLR,SCT,0.00,0.0,WeatherDisplay:10.37,2014-08-29 16:23:00,
2014-08-29 09:28:00,67.2,48.5,29.91,NNW,330,1.1,1.1,51,0.00,CLR,SCT,0.00,0.0,WeatherDisplay:10.37,2014-08-29 16:28:00,
2014-08-29 09:33:00,67.6,48.3,29.91,NNW,330,0.0,0.0,50,0.00,CLR,SCT,0.00,0.0,WeatherDisplay:10.37,2014-08-29 16:33:00,
2014-08-29 09:38:00,68.1,48.8,29.91,NNW,330,2.3,2.3,50,0.00,CLR,SCT,0.00,0.0,WeatherDisplay:10.37,2014-08-29 16:38:00,
2014-08-29 09:43:00,68.9,50.0,29.91,NNW,330,0.0,0.0,51,0.00,CLR,SCT,0.00,0.0,WeatherDisplay:10.37,2014-08-29 16:43:00,
2014-08-29 09:48:00,69.6,46.7,29.91,East,100,2.0,2.0,44,0.00,CLR,SCT,0.00,0.0,WeatherDisplay:10.37,2014-08-29 16:48:00,
2014-08-29 09:53:00,70.4,45.6,29.91,East,90,1.1,1.1,41,0.00,CLR,SCT,0.00,0.0,WeatherDisplay:10.37,2014-08-29 16:53:00,
2014-08-29 09:58:00,71.4,48.3,29.91,NNE,16,1.1,1.1,44,0.00,CLR,SCT,0.00,0.0,WeatherDisplay:10.37,2014-08-29 16:58:00,
2014-08-29 10:03:00,71.9,53.3,29.92,NNE,16,1.1,0.0,52,0.00,CLR,SCT,0.00,0.0,WeatherDisplay:10.37,2014-08-29 17:03:00,
2014-08-29 10:08:00,72.2,52.0,29.92,NNE,16,1.1,0.0,49,0.00,CLR,SCT,0.00,0.0,WeatherDisplay:10.37,2014-08-29 17:08:00,
2014-08-29 10:13:00,72.5,50.5,29.92,NNE,16,0.0,0.0,46,0.00,CLR,SCT,0.00,0.0,WeatherDisplay:10.37,2014-08-29 17:13:00,
2014-08-29 10:18:00,73.1,52.8,29.92,NNE,16,1.1,1.1,49,0.00,CLR,SCT,0.00,0.0,WeatherDisplay:10.37,2014-08-29 17:18:00,
2014-08-29 10:23:00,73.5,53.7,29.92,NNE,16,2.3,2.3,50,0.00,CLR,SCT,0.00,0.0,WeatherDisplay:10.37,2014-08-29 17:23:00,
2014-08-29 10:28:00,74.0,51.9,29.92,NNE,16,1.1,1.1,46,0.00,CLR,SCT,0.00,0.0,WeatherDisplay:10.37,2014-08-29 17:28:00,
2014-08-29 10:33:00,74.9,48.3,29.92,NNE,16,1.1,1.1,39,0.00,CLR,SCT,0.00,0.0,WeatherDisplay:10.37,2014-08-29 17:33:00,
2014-08-29 10:38:00,75.6,48.2,29.92,NNE,31,2.3,2.3,38,0.00,CLR,SCT,0.00,0.0,WeatherDisplay:10.37,2014-08-29 17:38:00,
2014-08-29 10:43:00,76.2,52.7,29.92,ENE,61,2.3,2.3,44,0.00,CLR,SCT,0.00,0.0,WeatherDisplay:10.37,2014-08-29 17:43:00,
2014-08-29 10:48:00,76.4,47.5,29.92,ESE,110,1.1,1.1,36,0.00,CLR,SCT,0.00,0.0,WeatherDisplay:10.37,2014-08-29 17:48:00,
2014-08-29 10:53:00,76.9,49.4,29.92,ESE,115,2.3,2.3,38,0.00,CLR,SCT,0.00,0.0,WeatherDisplay:10.37,2014-08-29 17:53:00,
2014-08-29 10:58:00,77.2,46.7,29.92,NNW,329,2.3,2.3,34,0.00,CLR,SCT,0.00,0.0,WeatherDisplay:10.37,2014-08-29 17:58:00,
2014-08-29 11:03:00,77.5,46.1,29.92,ESE,123,3.5,3.5,33,0.00,CLR,SCT,0.00,0.0,WeatherDisplay:10.37,2014-08-29 18:03:00,
2014-08-29 11:08:00,77.6,50.7,29.92,ESE,119,2.3,2.3,39,0.00,CLR,SCT,0.00,0.0,WeatherDisplay:10.37,2014-08-29 18:08:00,
2014-08-29 11:13:00,77.7,47.9,29.92,ESE,118,4.0,4.0,35,0.00,CLR,SCT,0.00,0.0,WeatherDisplay:10.37,2014-08-29 18:13:00,
2014-08-29 11:18:00,77.8,46.4,29.92,ESE,122,3.5,3.5,33,0.00,CLR,SCT,0.00,0.0,WeatherDisplay:10.37,2014-08-29 18:18:00,
2014-08-29 11:23:00,77.8,47.2,29.92,SE,127,3.5,3.5,34,0.00,CLR,SCT,0.00,0.0,WeatherDisplay:10.37,2014-08-29 18:23:00,
2014-08-29 11:28:00,77.8,46.4,29.92,ESE,117,3.5,3.5,33,0.00,CLR,SCT,0.00,0.0,WeatherDisplay:10.37,2014-08-29 18:28:00,
2014-08-29 11:33:00,77.9,47.3,29.92,ESE,116,5.8,5.8,34,0.00,CLR,SCT,0.00,0.0,WeatherDisplay:10.37,2014-08-29 18:33:00,
2014-08-29 11:38:00,77.9,48.0,29.92,SSE,147,2.3,2.3,35,0.00,CLR,SCT,0.00,0.0,WeatherDisplay:10.37,2014-08-29 18:38:00,
2014-08-29 11:43:00,78.0,47.4,29.92,SE,144,4.0,4.0,34,0.00,FEW,SCT,0.00,0.0,WeatherDisplay:10.37,2014-08-29 18:43:00,
2014-08-29 11:48:00,78.3,49.1,29.92,SE,142,3.5,3.5,36,0.00,FEW,SCT,0.00,0.0,WeatherDisplay:10.37,2014-08-29 18:48:00,